Latest Coastal Weather Observations for Smithton

IDV60701

Issued at 2:11 am EDT Monday 2 March 2015 (issued every 10 minutes, with the page automatically refreshed every 10 minutes)

About coastal observations | Map of coastal stations | Coastal observations for VIC | Marine services | Other Formats
Station Details ID: 091292 Name: SMITHTON AERODROME Lat: -40.83 Lon: 145.08 Height: 7.5 m
Data from the previous 72 hours. | See also: Recent months at Smithton
Date/Time
EDT
Temp

°C
Wind Pressure Rain
since 9am
mm
Weather Cloud Vis
km
Sea
Height
m
Swell
Dir
 
Speed
knots
Gust
knots
hPa Trend Height
m
Period
s
Dir
02/02:00am 5.5 SSW 10 11 1017.9 - 0.0 - - - - - - -
02/01:30am 5.2 SSW 9 9 1017.8 - 0.0 - - - - - - -
02/01:00am 4.5 SSW 6 7 1017.7 - 0.0 - - - - - - -
02/12:30am 6.0 SSW 7 8 1017.9 - 0.0 - - - - - - -
02/12:00am 5.6 SSW 7 8 1017.9 - 0.0 - - - - - - -
 
Date/Time
EDT
Temp

°C
Wind Pressure Rain
since 9am
mm
Weather Cloud Vis
km
Sea
Height
m
Swell
Dir
 
Speed
knots
Gust
knots
hPa Trend Height
m
Period
s
Dir
01/11:30pm 6.2 CALM 0 0 1018.3 - 0.0 - - - - - - -
01/11:00pm 7.7 CALM 0 3 1018.3 - 0.0 - - - - - - -
01/10:30pm 7.6 SSW 6 7 1018.2 - 0.0 - - - - - - -
01/10:00pm 7.8 SSW 7 8 1018.3 - 0.0 - - - - - - -
01/09:30pm 8.6 SSW 9 9 1018.3 - 0.0 - - - - - - -
01/09:00pm 9.9 S 7 8 1017.8 - 0.0 - - - - - - -
01/08:30pm 11.3 SSW 9 12 1017.4 - 0.0 - - - - - - -
01/08:00pm 12.1 SSW 11 14 1017.0 - 0.0 - - - - - - -
01/07:30pm 13.9 SSW 13 16 1016.6 - 0.0 - - - - - - -
01/07:00pm 15.7 SSW 14 19 1016.3 - 0.0 - - - - - - -
01/06:30pm 15.6 SSW 14 19 1015.8 - 0.0 - - - - - - -
01/06:00pm 15.8 SSW 17 22 1015.4 - 0.0 - - - - - - -
01/05:30pm 16.9 SSW 15 22 1015.0 - 0.0 - - - - - - -
01/05:00pm 17.1 SSW 17 22 1014.6 - 0.0 - - - - - - -
01/04:30pm 18.5 SSW 18 23 1014.4 - 0.0 - - - - - - -
01/04:00pm 16.8 SSW 19 24 1014.2 - 0.0 - - - - - - -
01/03:56pm 16.8 SSW 20 25 1014.1 - 0.0 - - - - - - -
01/03:30pm 18.9 SW 20 26 1013.7 - 0.0 - - - - - - -
01/03:00pm 18.0 SW 19 26 1013.4 - 0.0 - - - - - - -
01/02:30pm 17.1 WSW 22 29 1013.3 - 0.0 - - - - - - -
01/02:17pm 18.6 SW 19 29 1013.1 - 0.0 - - - - - - -
01/02:00pm 18.7 SW 21 29 1012.7 - 0.0 - - - - - - -
01/01:30pm 18.6 SW 20 25 1012.5 - 0.0 - - - - - - -
01/01:00pm 18.6 WSW 22 32 1012.6 - 0.0 - - - - - - -
01/12:47pm 18.4 SW 20 31 1012.3 - 0.0 - - - - - - -
01/12:30pm 17.7 SW 20 27 1012.4 - 0.0 - - - - - - -
01/12:02pm 17.6 SW 20 31 1011.9 - 0.0 - - - - - - -
01/12:00pm 17.8 SW 20 28 1011.9 - 0.0 - - - - - - -
01/11:45am 17.2 SW 20 30 1011.8 - 0.0 - - - - - - -
01/11:30am 18.5 SW 19 26 1011.7 - 0.0 - - - - - - -
01/11:23am 17.7 SW 20 30 1011.5 - 0.0 - - - - - - -
01/11:00am 17.3 SW 21 29 1011.2 - 0.0 - - - - - - -
01/10:30am 17.0 SW 18 25 1010.6 - 0.0 - - - - - - -
01/10:00am 15.7 SW 18 24 1010.1 - 0.0 - - - - - - -
01/09:45am 16.6 SW 17 27 1009.7 - 0.0 - - - - - - -
01/09:30am 16.4 SW 15 23 1009.6 - 0.0 - - - - - - -
01/09:00am 15.2 SW 13 18 1009.1 - 2.2 - - - - - - -
01/08:30am 14.1 SW 14 19 1008.7 - 2.2 - - - - - - -
01/08:00am 13.7 WSW 12 20 1008.3 - 2.2 - - - - - - -
01/07:30am 11.7 WSW 8 9 1007.7 - 2.2 - - - - - - -
01/07:00am 11.2 WSW 8 10 1007.1 - 2.2 - - - - - - -
01/06:30am 12.3 SW 9 11 1006.6 - 2.2 - - - - - - -
01/06:00am 12.4 SW 10 14 1006.0 - 2.2 - - - - - - -
01/05:30am 12.4 SW 11 14 1005.7 - 2.2 - - - - - - -
01/05:00am 12.8 SW 13 19 1005.2 - 2.2 - - - - - - -
01/04:30am 12.3 SW 11 14 1004.9 - 2.2 - - - - - - -
01/04:00am 12.5 SW 13 16 1004.7 - 2.2 - - - - - - -
01/03:30am 12.9 SW 13 17 1004.6 - 2.2 - - - - - - -
01/03:00am 12.5 SW 11 13 1004.7 - 2.2 - - - - - - -
01/02:30am 13.0 SW 11 15 1004.7 - 2.2 - - - - - - -
01/02:00am 13.3 SW 11 15 1004.6 - 2.2 - - - - - - -
01/01:30am 14.2 WSW 10 13 1004.6 - 2.2 - - - - - - -
01/01:00am 14.4 SW 8 11 1004.4 - 2.2 - - - - - - -
01/12:30am 14.5 SW 10 13 1004.4 - 2.2 - - - - - - -
01/12:00am 14.6 SW 11 15 1004.4 - 2.2 - - - - - - -
 
Date/Time
EDT
Temp

°C
Wind Pressure Rain
since 9am
mm
Weather Cloud Vis
km
Sea
Height
m
Swell
Dir
 
Speed
knots
Gust
knots
hPa Trend Height
m
Period
s
Dir
28/11:30pm 14.8 WSW 10 13 1004.3 - 2.2 - - - - - - -
28/11:00pm 15.2 WSW 11 14 1004.4 - 2.2 - - - - - - -
28/10:30pm 15.5 SW 10 14 1004.1 - 2.2 - - - - - - -
28/10:00pm 15.8 WSW 10 15 1003.9 - 2.2 - - - - - - -
28/09:30pm 16.3 W 8 10 1003.5 - 2.2 - - - - - - -
28/09:00pm 17.0 W 9 13 1002.6 - 2.2 - - - - - - -
28/08:30pm 17.3 W 11 15 1002.0 - 2.2 - - - - - - -
28/08:00pm 17.9 W 8 11 1000.8 - 2.2 - - - - - - -
28/07:30pm 18.2 W 6 8 1000.9 - 2.2 - - - - - - -
28/07:00pm 18.4 WNW 9 12 1001.0 - 2.0 - - - - - - -
28/06:30pm 18.6 W 10 13 1001.2 - 1.6 - - - - - - -
28/06:00pm 19.0 W 10 14 1000.5 - 0.8 - - - - - - -
28/05:30pm 19.6 WNW 10 14 1001.0 - 0.8 - - - - - - -
28/05:00pm 20.1 WNW 13 17 1001.1 - 0.6 - - - - - - -
28/04:30pm 19.7 NW 12 17 1001.4 - 0.6 - - - - - - -
28/04:00pm 19.4 N 6 9 1001.6 - 0.6 - - - - - - -
28/03:30pm 18.5 ENE 7 9 1001.8 - 0.6 - - - - - - -
28/03:00pm 18.3 ENE 7 9 1002.2 - 0.2 - - - - - - -
28/02:30pm 18.3 ENE 10 13 1002.4 - 0.2 - - - - - - -
28/02:00pm 18.2 ENE 10 13 1002.6 - 0.2 - - - - - - -
28/01:30pm 17.8 NE 11 15 1003.2 - 0.2 - - - - - - -
28/01:00pm 17.7 ENE 12 16 1003.6 - 0.0 - - - - - - -
28/12:30pm 17.5 NE 12 18 1004.0 - 0.0 - - - - - - -
28/12:00pm 17.4 ENE 10 13 1004.3 - 0.0 - - - - - - -
28/11:30am 17.4 NE 11 14 1004.8 - 0.0 - - - - - - -
28/11:00am 17.5 NE 13 17 1004.9 - 0.0 - - - - - - -
28/10:30am 17.3 NE 12 17 1005.1 - 0.0 - - - - - - -
28/10:00am 17.1 NE 11 14 1005.7 - 0.0 - - - - - - -
28/09:30am 16.6 NE 12 15 1005.7 - 0.0 - - - - - - -
28/09:00am 16.9 NE 12 18 1005.5 - 0.0 - - - - - - -
28/08:30am 16.2 NE 12 17 1005.6 - 0.0 - - - - - - -
28/08:00am 15.4 NE 8 11 1005.5 - 0.0 - - - - - - -
28/07:30am 10.4 SSW 4 5 1005.8 - 0.0 - - - - - - -
28/07:00am 8.7 CALM 0 1 1006.0 - 0.0 - - - - - - -
28/06:30am 7.6 SSW 5 5 1006.1 - 0.0 - - - - - - -
28/06:00am 6.4 CALM 0 0 1005.6 - 0.0 - - - - - - -
28/05:30am 6.7 SSW 2 4 1006.0 - 0.0 - - - - - - -
28/05:00am 6.6 CALM 0 3 1006.6 - 0.0 - - - - - - -
28/04:30am 6.0 SSW 3 4 1007.2 - 0.0 - - - - - - -
28/04:00am 6.9 CALM 0 0 1007.1 - 0.0 - - - - - - -
28/03:30am 7.4 SSW 3 4 1007.5 - 0.0 - - - - - - -
28/03:00am 7.9 SSW 4 5 1007.8 - 0.0 - - - - - - -
28/02:30am 7.1 SW 5 6 1008.4 - 0.0 - - - - - - -
28/02:00am 8.1 WSW 4 6 1008.4 - 0.0 - - - - - - -
28/01:30am 7.4 WSW 5 7 1009.2 - 0.0 - - - - - - -
28/01:00am 8.1 SW 7 8 1009.6 - 0.0 - - - - - - -
28/12:30am 7.8 W 6 7 1009.5 - 0.0 - - - - - - -
28/12:00am 8.1 W 7 7 1009.5 - 0.0 - - - - - - -
 
Date/Time
EDT
Temp

°C
Wind Pressure Rain
since 9am
mm
Weather Cloud Vis
km
Sea
Height
m
Swell
Dir
 
Speed
knots
Gust
knots
hPa Trend Height
m
Period
s
Dir
27/11:30pm 10.1 W 1 4 1009.8 - 0.0 - - - - - - -
27/11:00pm 10.3 WSW 9 10 1010.4 - 0.0 - - - - - - -
27/10:30pm 9.4 WSW 5 6 1010.5 - 0.0 - - - - - - -
27/10:00pm 9.7 SSW 7 8 1010.6 - 0.0 - - - - - - -
27/09:30pm 10.5 SSW 9 11 1010.6 - 0.0 - - - - - - -
27/09:00pm 11.0 SW 8 9 1010.5 - 0.0 - - - - - - -
27/08:30pm 11.7 WSW 9 10 1010.6 - 0.0 - - - - - - -
27/08:00pm 13.4 WSW 9 11 1010.1 - 0.0 - - - - - - -
27/07:30pm 14.9 SW 9 13 1009.8 - 0.0 - - - - - - -
27/07:00pm 16.2 SSW 12 15 1009.8 - 0.0 - - - - - - -
27/06:30pm 17.0 SW 15 18 1009.5 - 0.0 - - - - - - -
27/06:00pm 16.9 SSW 14 20 1009.7 - 0.0 - - - - - - -
27/05:30pm 17.8 SW 14 17 1009.6 - 0.0 - - - - - - -
27/05:00pm 17.6 SSW 15 20 1009.6 - 0.0 - - - - - - -
27/04:30pm 17.5 SSW 12 18 1009.8 - 0.0 - - - - - - -
27/04:00pm 16.3 SW 12 16 1009.6 - 0.0 - - - - - - -
27/03:30pm 16.2 WSW 14 17 1010.0 - 0.0 - - - - - - -
27/03:00pm 17.0 SW 13 17 1010.3 - 0.0 - - - - - - -
27/02:30pm 17.5 SW 13 17 1010.2 - 0.0 - - - - - - -
27/02:00pm 17.2 SW 13 18 1010.2 - 0.0 - - - - - - -
27/01:30pm 18.2 SW 11 17 1010.3 - 0.0 - - - - - - -
27/01:00pm 18.4 SW 14 19 1010.6 - 0.0 - - - - - - -
27/12:30pm 18.3 SW 12 17 1010.6 - 0.0 - - - - - - -
27/12:00pm 18.2 SW 13 16 1010.6 - 0.0 - - - - - - -
27/11:30am 17.5 SW 15 19 1011.2 - 0.0 - - - - - - -
27/11:00am 17.2 SW 13 18 1011.1 - 0.0 - - - - - - -
27/10:30am 16.5 SW 14 18 1010.8 - 0.0 - - - - - - -
27/10:00am 16.1 SSW 12 19 1011.1 - 0.0 - - - - - - -
27/09:30am 14.7 SSW 9 14 1011.2 - 0.0 - - - - - - -
27/09:00am 11.6 SSW 5 7 1011.0 - 0.2 - - - - - - -
27/08:30am 8.8 SSW 6 8 1011.4 - 0.2 - - - - - - -
27/08:00am 7.1 SW 5 6 1010.8 - 0.2 - - - - - - -
27/07:30am 3.8 SW 4 5 1010.7 - 0.2 - - - - - - -
27/07:00am 2.7 SW 2 4 1010.2 - 0.2 - - - - - - -
27/06:30am 3.8 SW 5 6 1010.5 - 0.2 - - - - - - -
27/06:00am 6.1 SW 4 5 1010.1 - 0.2 - - - - - - -
27/05:30am 5.3 SW 5 6 1010.6 - 0.2 - - - - - - -
27/05:00am 6.8 SW 5 6 1010.6 - 0.2 - - - - - - -
27/04:30am 5.9 WSW 4 6 1010.6 - 0.2 - - - - - - -
27/04:00am 7.5 WSW 5 6 1010.5 - 0.2 - - - - - - -
27/03:30am 7.3 WSW 4 5 1010.4 - 0.2 - - - - - - -
27/03:00am 7.7 WSW 3 4 1010.3 - 0.2 - - - - - - -
27/02:30am 8.5 WSW 9 10 1010.2 - 0.2 - - - - - - -

Other Formats:

Comma delimited format used in spreadsheet applications
http://www.bom.gov.au/fwo/IDV60701/IDV60701.94953.axf

JavaScript Object Notation format (JSON) in row-major order
http://www.bom.gov.au/fwo/IDV60701/IDV60701.94953.json